createdAt,value
2022-12-10T00:00:05.765Z,100.00
2022-12-10T00:02:32.252Z,100.00
2022-12-10T00:04:58.724Z,100.00
2022-12-10T00:07:25.273Z,100.00
2022-12-10T00:09:51.643Z,100.00
2022-12-10T00:12:18.037Z,100.00
2022-12-10T00:14:44.419Z,100.00
2022-12-10T00:17:13.045Z,100.00
2022-12-10T00:19:39.676Z,100.00
2022-12-10T00:22:06.043Z,100.00
2022-12-10T00:24:32.394Z,100.00
2022-12-10T00:26:58.785Z,100.00
2022-12-10T00:29:25.099Z,100.00
2022-12-10T00:31:51.532Z,100.00
2022-12-10T00:34:17.965Z,100.00
2022-12-10T00:36:45.711Z,100.00
2022-12-10T00:39:16.090Z,100.00
2022-12-10T00:41:42.454Z,100.00
2022-12-10T00:44:08.905Z,100.00
2022-12-10T00:46:35.362Z,100.00
2022-12-10T00:49:02.110Z,100.00
2022-12-10T00:51:28.749Z,100.00
2022-12-10T00:53:55.931Z,100.00
2022-12-10T00:56:23.539Z,100.00
2022-12-10T00:58:50.353Z,100.00
2022-12-10T01:01:16.673Z,100.00
2022-12-10T01:03:43.701Z,100.00
2022-12-10T01:06:15.608Z,100.00
2022-12-10T01:08:42.629Z,100.00
2022-12-10T01:11:09.989Z,100.00
2022-12-10T01:13:36.367Z,100.00
2022-12-10T01:16:03.901Z,100.00
2022-12-10T01:18:30.367Z,100.00
2022-12-10T01:21:00.720Z,100.00
2022-12-10T01:23:27.171Z,100.00
2022-12-10T01:25:53.552Z,100.00
2022-12-10T01:28:19.939Z,100.00
2022-12-10T01:30:46.330Z,100.00
2022-12-10T01:33:12.662Z,100.00
2022-12-10T01:35:38.990Z,100.00
2022-12-10T01:38:05.427Z,100.00
2022-12-10T01:40:32.153Z,100.00
2022-12-10T01:43:00.479Z,100.00
2022-12-10T01:45:27.177Z,100.00
2022-12-10T01:47:53.582Z,100.00
2022-12-10T01:50:19.946Z,100.00
2022-12-10T01:52:46.353Z,100.00
2022-12-10T01:55:31.598Z,100.00
2022-12-10T01:57:57.909Z,100.00
2022-12-10T02:00:24.316Z,100.00
2022-12-10T02:02:55.997Z,100.00
2022-12-10T02:05:28.939Z,100.00
2022-12-10T02:07:55.363Z,100.00
2022-12-10T02:10:31.028Z,100.00
2022-12-10T02:12:57.375Z,100.00
2022-12-10T02:15:26.643Z,100.00
2022-12-10T02:17:58.509Z,100.00
2022-12-10T02:20:37.595Z,100.00
2022-12-10T02:23:06.369Z,100.00
2022-12-10T02:25:42.164Z,100.00
2022-12-10T02:28:13.210Z,100.00
2022-12-10T02:30:40.281Z,100.00
2022-12-10T02:33:08.067Z,100.00
2022-12-10T02:35:36.174Z,100.00
2022-12-10T02:38:12.127Z,100.00
2022-12-10T02:40:40.928Z,100.00
2022-12-10T02:43:07.418Z,100.00
2022-12-10T02:45:34.621Z,100.00
2022-12-10T02:48:03.073Z,100.00
2022-12-10T02:50:29.531Z,100.00
2022-12-10T02:52:55.901Z,100.00
2022-12-10T02:55:22.396Z,100.00
2022-12-10T02:57:51.795Z,100.00
2022-12-10T03:00:19.432Z,100.00
2022-12-10T03:02:54.954Z,100.00
2022-12-10T03:05:25.642Z,100.00
2022-12-10T03:08:02.381Z,100.00
2022-12-10T03:10:33.071Z,100.00
2022-12-10T03:13:00.779Z,100.00
2022-12-10T03:15:29.226Z,100.00
2022-12-10T03:17:56.369Z,100.00
2022-12-10T03:20:24.032Z,100.00
2022-12-10T03:22:50.498Z,100.00
2022-12-10T03:25:20.027Z,100.00
2022-12-10T03:27:50.815Z,100.00
2022-12-10T03:30:17.226Z,100.00
2022-12-10T03:32:44.200Z,100.00
2022-12-10T03:35:11.986Z,100.00
2022-12-10T03:37:38.405Z,100.00
2022-12-10T03:40:06.278Z,100.00
2022-12-10T03:42:33.023Z,100.00
2022-12-10T03:44:59.380Z,100.00
2022-12-10T03:47:25.843Z,100.00
2022-12-10T03:49:52.230Z,100.00
2022-12-10T03:52:18.640Z,100.00
2022-12-10T03:54:45.113Z,100.00
2022-12-10T03:57:11.483Z,100.00
2022-12-10T03:59:37.877Z,100.00
2022-12-10T04:02:04.286Z,100.00
2022-12-10T04:04:31.011Z,100.00
2022-12-10T04:06:57.527Z,100.00
2022-12-10T04:09:23.956Z,100.00
2022-12-10T04:11:50.491Z,100.00
2022-12-10T04:14:35.706Z,100.00
2022-12-10T04:17:02.180Z,100.00
2022-12-10T04:19:28.700Z,100.00
2022-12-10T04:22:13.837Z,100.00
2022-12-10T04:24:59.022Z,100.00
2022-12-10T04:27:25.393Z,100.00
2022-12-10T04:29:51.764Z,100.00
2022-12-10T04:32:18.851Z,100.00
2022-12-10T04:34:45.229Z,100.00
2022-12-10T04:37:14.707Z,100.00
2022-12-10T04:39:41.167Z,100.00
2022-12-10T04:42:07.906Z,100.00
2022-12-10T04:44:34.596Z,100.00
2022-12-10T04:47:01.280Z,100.00
2022-12-10T04:49:27.816Z,100.00
2022-12-10T04:51:54.605Z,100.00
2022-12-10T04:54:21.144Z,100.00
2022-12-10T04:56:47.660Z,100.00
2022-12-10T04:59:14.368Z,100.00
2022-12-10T05:01:40.913Z,100.00
2022-12-10T05:04:08.570Z,100.00
2022-12-10T05:06:35.220Z,100.00
2022-12-10T05:09:02.024Z,100.00
2022-12-10T05:11:29.364Z,100.00
2022-12-10T05:13:56.197Z,100.00
2022-12-10T05:16:23.239Z,100.00
2022-12-10T05:18:50.328Z,100.00
2022-12-10T05:21:18.282Z,100.00
2022-12-10T05:23:46.106Z,100.00
2022-12-10T05:26:20.070Z,100.00
2022-12-10T05:28:48.065Z,100.00
2022-12-10T05:31:16.018Z,100.00
2022-12-10T05:33:42.447Z,100.00
2022-12-10T05:36:10.131Z,100.00
2022-12-10T05:38:36.509Z,100.00
2022-12-10T05:41:07.083Z,100.00
2022-12-10T05:43:33.521Z,100.00
2022-12-10T05:46:04.042Z,100.00
2022-12-10T05:48:30.519Z,100.00
2022-12-10T05:50:57.194Z,100.00
2022-12-10T05:53:24.143Z,100.00
2022-12-10T05:55:50.526Z,100.00
2022-12-10T05:58:16.906Z,100.00
2022-12-10T06:00:43.314Z,100.00
2022-12-10T06:03:09.802Z,100.00
2022-12-10T06:05:39.770Z,100.00
2022-12-10T06:08:06.335Z,100.00
2022-12-10T06:10:34.691Z,100.00
2022-12-10T06:13:01.060Z,100.00
2022-12-10T06:15:27.548Z,100.00
2022-12-10T06:17:55.102Z,100.00
2022-12-10T06:20:21.593Z,100.00
2022-12-10T06:22:48.048Z,99.61
2022-12-10T06:25:14.731Z,98.32
2022-12-10T06:27:41.108Z,98.77
2022-12-10T06:30:08.174Z,99.41
2022-12-10T06:32:34.826Z,100.00
2022-12-10T06:35:01.195Z,100.00
2022-12-10T06:37:27.702Z,100.00
2022-12-10T06:39:54.165Z,100.00
2022-12-10T06:42:20.851Z,100.00
2022-12-10T06:44:47.564Z,98.74
2022-12-10T06:47:14.734Z,100.00
2022-12-10T06:49:41.432Z,100.00
2022-12-10T06:52:08.205Z,100.00
2022-12-10T06:54:40.225Z,100.00
2022-12-10T06:57:06.882Z,100.00
2022-12-10T06:59:37.588Z,100.00
2022-12-10T07:02:04.223Z,100.00
2022-12-10T07:04:30.795Z,100.00
2022-12-10T07:06:59.639Z,100.00
2022-12-10T07:09:26.389Z,100.00
2022-12-10T07:11:52.992Z,100.00
2022-12-10T07:14:19.555Z,100.00
2022-12-10T07:16:46.337Z,100.00
2022-12-10T07:19:28.582Z,100.00
2022-12-10T07:22:33.756Z,100.00
2022-12-10T07:31:28.947Z,99.04
2022-12-10T07:33:55.718Z,97.90
2022-12-10T07:36:23.745Z,97.76
2022-12-10T07:38:56.366Z,98.45
2022-12-10T07:41:26.892Z,99.63
2022-12-10T07:44:12.179Z,98.71
2022-12-10T07:46:38.997Z,98.55
2022-12-10T07:49:06.168Z,97.07
2022-12-10T07:51:32.674Z,96.54
2022-12-10T07:53:59.060Z,98.20
2022-12-10T07:56:25.638Z,97.32
2022-12-10T07:58:52.480Z,96.95
2022-12-10T08:01:20.642Z,95.07
2022-12-10T08:03:47.175Z,96.17
2022-12-10T08:06:15.156Z,95.76
2022-12-10T08:08:42.259Z,95.74
2022-12-10T08:11:09.386Z,95.87
2022-12-10T08:13:36.518Z,95.67
2022-12-10T08:16:11.360Z,94.56
2022-12-10T08:18:38.557Z,93.89
2022-12-10T08:21:06.578Z,94.20
2022-12-10T08:23:33.110Z,95.77
2022-12-10T08:26:00.061Z,95.20
2022-12-10T08:28:26.438Z,94.61
2022-12-10T08:30:52.815Z,95.21
2022-12-10T08:33:21.057Z,94.21
2022-12-10T08:35:47.451Z,93.91
2022-12-10T08:38:13.891Z,94.19
2022-12-10T08:40:41.625Z,94.73
2022-12-10T08:43:13.494Z,93.40
2022-12-10T08:45:40.115Z,93.37
2022-12-10T08:48:06.571Z,93.44
2022-12-10T08:50:33.295Z,94.76
2022-12-10T08:53:16.134Z,96.31
2022-12-10T08:56:03.342Z,94.40
2022-12-10T08:58:32.071Z,94.45
2022-12-10T09:01:00.280Z,93.79
2022-12-10T09:03:26.834Z,94.07
2022-12-10T09:05:53.581Z,93.99
2022-12-10T09:08:24.331Z,92.94
2022-12-10T09:10:50.843Z,93.47
2022-12-10T09:13:17.342Z,92.82
2022-12-10T09:15:49.877Z,93.45
2022-12-10T09:18:16.299Z,94.85
2022-12-10T09:20:42.771Z,93.49
2022-12-10T09:23:13.013Z,92.88
2022-12-10T09:25:39.579Z,92.04
2022-12-10T09:28:06.117Z,92.46
2022-12-10T09:30:32.651Z,94.01
2022-12-10T09:32:59.207Z,93.81
2022-12-10T09:35:28.664Z,93.13
2022-12-10T09:37:55.129Z,93.26
2022-12-10T09:40:30.825Z,93.65
2022-12-10T09:43:02.575Z,92.50
2022-12-10T09:45:45.882Z,92.56
2022-12-10T09:48:33.674Z,91.95
2022-12-10T09:51:00.088Z,91.49
2022-12-10T09:53:29.360Z,92.39
2022-12-10T09:55:55.911Z,90.93
2022-12-10T09:58:29.570Z,91.18
2022-12-10T10:01:01.505Z,91.22
2022-12-10T10:03:35.100Z,90.00
2022-12-10T10:06:09.419Z,89.59
2022-12-10T10:08:38.992Z,89.49
2022-12-10T10:11:05.559Z,90.31
2022-12-10T10:13:37.158Z,90.84
2022-12-10T10:16:22.419Z,91.46
2022-12-10T10:18:54.896Z,92.64
2022-12-10T10:21:26.446Z,91.72
2022-12-10T10:23:53.318Z,91.16
2022-12-10T10:26:19.765Z,91.07
2022-12-10T10:28:47.070Z,91.86
2022-12-10T10:31:23.666Z,90.97
2022-12-10T10:33:57.287Z,91.85
2022-12-10T10:36:28.463Z,91.35
2022-12-10T10:38:54.938Z,90.95
2022-12-10T10:41:21.467Z,90.27
2022-12-10T10:43:48.945Z,90.22
2022-12-10T10:46:16.641Z,92.50
2022-12-10T10:48:46.524Z,91.33
2022-12-10T10:51:24.411Z,92.18
2022-12-10T10:53:58.229Z,91.40
2022-12-10T10:56:41.289Z,91.92
2022-12-10T10:59:07.624Z,91.01
2022-12-10T11:01:48.158Z,91.95
2022-12-10T11:04:19.114Z,92.73
2022-12-10T11:06:55.457Z,93.24
2022-12-10T11:09:23.269Z,93.06
2022-12-10T11:11:59.133Z,90.93
2022-12-10T11:14:25.495Z,91.55
2022-12-10T11:17:00.710Z,90.50
2022-12-10T11:19:30.489Z,90.74
2022-12-10T11:22:15.865Z,90.62
2022-12-10T11:24:42.616Z,91.05
2022-12-10T11:27:14.581Z,90.57
2022-12-10T11:29:48.631Z,91.64
2022-12-10T11:32:37.920Z,91.38
2022-12-10T11:35:33.798Z,91.29
2022-12-10T11:38:07.335Z,89.93
2022-12-10T11:40:49.697Z,91.45
2022-12-10T11:43:26.739Z,93.12
2022-12-10T11:46:11.776Z,93.87
2022-12-10T11:48:47.517Z,93.45
2022-12-10T11:51:20.710Z,93.35
2022-12-10T11:54:05.969Z,93.00
2022-12-10T11:56:34.757Z,91.36
2022-12-10T11:59:10.349Z,91.46
2022-12-10T12:01:56.638Z,91.22
2022-12-10T12:04:34.233Z,91.61
2022-12-10T12:07:11.852Z,91.79
2022-12-10T12:09:41.148Z,92.26
2022-12-10T12:12:12.874Z,90.87
2022-12-10T12:14:47.447Z,91.64
2022-12-10T12:17:46.428Z,92.00
2022-12-10T12:20:15.792Z,90.29
2022-12-10T12:22:44.697Z,92.05
2022-12-10T12:25:21.373Z,91.49
2022-12-10T12:28:01.135Z,90.00
2022-12-10T12:30:27.566Z,91.33
2022-12-10T12:33:01.008Z,89.97
2022-12-10T12:35:49.268Z,89.59
2022-12-10T12:38:28.604Z,89.08
2022-12-10T12:41:02.466Z,90.50
2022-12-10T12:43:37.970Z,89.62
2022-12-10T12:46:10.498Z,89.75
2022-12-10T12:48:47.384Z,90.39
2022-12-10T12:51:32.327Z,90.44
2022-12-10T12:53:58.894Z,90.06
2022-12-10T12:56:55.834Z,90.47
2022-12-10T12:59:40.489Z,90.48
2022-12-10T13:02:19.159Z,90.22
2022-12-10T13:04:45.829Z,90.63
2022-12-10T13:07:15.236Z,90.61
2022-12-10T13:09:45.522Z,89.34
2022-12-10T13:12:27.234Z,89.07
2022-12-10T13:15:17.102Z,89.98
2022-12-10T13:18:02.198Z,90.71
2022-12-10T13:20:28.708Z,89.13
2022-12-10T13:23:05.721Z,89.06
2022-12-10T13:25:40.918Z,89.45
2022-12-10T13:28:26.080Z,89.61
2022-12-10T13:31:11.277Z,89.33
2022-12-10T13:33:46.629Z,90.13
2022-12-10T13:36:13.034Z,90.96
2022-12-10T13:38:41.074Z,91.65
2022-12-10T13:41:26.133Z,92.37
2022-12-10T13:44:15.324Z,90.66
2022-12-10T13:47:00.287Z,89.46
2022-12-10T13:49:28.836Z,89.03
2022-12-10T13:51:59.990Z,90.28
2022-12-10T13:54:37.924Z,89.43
2022-12-10T13:59:53.972Z,90.63
2022-12-10T14:02:23.513Z,89.66
2022-12-10T14:04:55.962Z,89.61
2022-12-10T14:07:22.721Z,90.31
2022-12-10T14:09:53.978Z,89.25
2022-12-10T14:12:32.605Z,88.58
2022-12-10T14:15:06.080Z,88.80
2022-12-10T14:17:34.311Z,89.75
2022-12-10T14:20:01.500Z,89.62
2022-12-10T14:22:44.466Z,89.21
2022-12-10T14:28:13.104Z,89.64
2022-12-10T14:30:43.431Z,91.23
2022-12-10T14:33:14.225Z,90.03
2022-12-10T14:35:41.355Z,89.62
2022-12-10T14:38:18.049Z,90.16
2022-12-10T14:40:47.458Z,91.08
2022-12-10T14:43:21.886Z,90.16
2022-12-10T14:45:49.705Z,89.34
2022-12-10T14:48:17.525Z,89.02
2022-12-10T14:50:44.488Z,89.17
2022-12-10T14:53:21.123Z,88.51
2022-12-10T14:55:54.272Z,88.73
2022-12-10T14:58:42.336Z,89.78
2022-12-10T15:01:20.082Z,90.49
2022-12-10T15:03:47.532Z,89.91
2022-12-10T15:06:16.604Z,90.17
2022-12-10T15:08:43.732Z,90.65
2022-12-10T15:11:15.350Z,89.96
2022-12-10T15:13:43.326Z,90.30
2022-12-10T15:16:42.334Z,89.52
2022-12-10T15:19:15.095Z,90.67
2022-12-10T15:21:42.593Z,91.46
2022-12-10T15:24:15.161Z,91.68
2022-12-10T15:26:43.673Z,90.89
2022-12-10T15:29:28.860Z,92.42
2022-12-10T15:32:00.383Z,91.47
2022-12-10T15:34:28.240Z,90.72
2022-12-10T15:36:56.616Z,91.51
2022-12-10T15:39:27.907Z,90.32
2022-12-10T15:41:56.245Z,91.92
2022-12-10T15:44:28.768Z,91.41
2022-12-10T15:47:07.340Z,92.75
2022-12-10T15:49:36.152Z,93.58
2022-12-10T15:52:03.421Z,94.49
2022-12-10T15:54:41.122Z,95.60
2022-12-10T15:57:14.759Z,94.69
2022-12-10T15:59:42.182Z,95.38
2022-12-10T16:02:25.289Z,95.95
2022-12-10T16:04:51.813Z,95.72
2022-12-10T16:07:18.885Z,95.28
2022-12-10T16:09:45.800Z,93.68
2022-12-10T16:12:13.292Z,95.76
2022-12-10T16:14:41.580Z,97.35
2022-12-10T16:17:08.170Z,97.02
2022-12-10T16:19:44.474Z,97.91
2022-12-10T16:22:10.896Z,98.95
2022-12-10T16:24:40.725Z,98.72
2022-12-10T16:27:15.681Z,98.57
2022-12-10T16:29:42.753Z,96.88
2022-12-10T16:32:15.581Z,95.52
2022-12-10T16:34:42.284Z,95.55
2022-12-10T16:37:11.723Z,95.84
2022-12-10T16:39:38.470Z,95.24
2022-12-10T16:42:04.910Z,94.64
2022-12-10T16:44:31.266Z,93.96
2022-12-10T16:46:59.019Z,94.58
2022-12-10T16:49:25.508Z,96.07
2022-12-10T16:51:52.481Z,97.99
2022-12-10T16:54:18.994Z,98.32
2022-12-10T16:56:46.801Z,98.83
2022-12-10T16:59:13.264Z,98.76
2022-12-10T17:01:39.851Z,97.87
2022-12-10T17:04:06.338Z,96.64
2022-12-10T17:06:32.745Z,97.25
2022-12-10T17:08:59.271Z,97.55
2022-12-10T17:11:46.391Z,98.24
2022-12-10T17:14:33.278Z,98.41
2022-12-10T17:17:00.717Z,97.73
2022-12-10T17:19:45.515Z,97.43
2022-12-10T17:22:12.227Z,98.74
2022-12-10T17:24:38.875Z,97.20
2022-12-10T17:27:35.697Z,97.35
2022-12-10T17:30:05.808Z,98.55
2022-12-10T17:32:32.836Z,97.15
2022-12-10T17:34:59.708Z,98.53
2022-12-10T17:37:26.569Z,98.04
2022-12-10T17:39:53.010Z,97.08
2022-12-10T17:42:20.252Z,96.15
2022-12-10T17:44:52.739Z,98.24
2022-12-10T17:47:26.768Z,99.67
2022-12-10T17:49:55.935Z,99.43
2022-12-10T17:52:25.458Z,97.85
2022-12-10T17:54:51.935Z,96.64
2022-12-10T17:57:22.292Z,95.50
2022-12-10T17:59:48.929Z,95.70
2022-12-10T18:02:15.532Z,96.57
2022-12-10T18:04:42.115Z,98.10
2022-12-10T18:07:13.150Z,98.34
2022-12-10T18:09:40.505Z,97.67
2022-12-10T18:12:07.578Z,98.57
2022-12-10T18:14:34.384Z,97.79
2022-12-10T18:17:00.965Z,96.72
2022-12-10T18:19:27.674Z,95.76
2022-12-10T18:21:55.666Z,96.78
2022-12-10T18:24:26.078Z,98.25
2022-12-10T18:26:52.529Z,98.09
2022-12-10T18:29:19.038Z,99.23
2022-12-10T18:31:45.555Z,98.57
2022-12-10T18:34:12.974Z,99.30
2022-12-10T18:36:41.006Z,99.62
2022-12-10T18:39:14.029Z,98.40
2022-12-10T18:41:40.923Z,97.90
2022-12-10T18:44:07.362Z,96.69
2022-12-10T18:46:36.260Z,97.33
2022-12-10T18:49:02.851Z,96.68
2022-12-10T18:51:29.251Z,97.47
2022-12-10T18:53:56.019Z,97.63
2022-12-10T18:56:23.662Z,98.40
2022-12-10T18:58:50.367Z,96.15
2022-12-10T19:01:20.062Z,96.16
2022-12-10T19:03:48.725Z,95.58
2022-12-10T19:06:16.605Z,95.89
2022-12-10T19:09:10.001Z,95.38
2022-12-10T19:11:29.369Z,95.23
2022-12-10T19:13:55.874Z,96.53
2022-12-10T19:16:23.922Z,97.83
2022-12-10T19:18:51.314Z,96.44
2022-12-10T19:21:18.314Z,96.39
2022-12-10T19:23:45.018Z,96.14
2022-12-10T19:26:30.512Z,95.96
2022-12-10T19:29:01.102Z,95.61
2022-12-10T19:31:27.800Z,94.79
2022-12-10T19:34:36.586Z,94.47
2022-12-10T19:37:08.280Z,96.52
2022-12-10T19:39:38.718Z,96.50
2022-12-10T19:42:05.560Z,96.99
2022-12-10T19:44:35.667Z,97.31
2022-12-10T19:47:08.509Z,96.88
2022-12-10T19:49:41.622Z,96.33
2022-12-10T19:52:33.880Z,96.91
2022-12-10T19:56:04.093Z,96.79
2022-12-10T19:58:33.644Z,97.16
2022-12-10T20:01:09.090Z,98.18
2022-12-10T20:03:37.754Z,97.32
2022-12-10T20:10:14.258Z,97.30
2022-12-10T20:19:47.037Z,97.29
2022-12-10T20:26:00.679Z,97.92
2022-12-10T20:32:30.139Z,97.05
2022-12-10T20:49:43.202Z,95.84
2022-12-10T21:01:58.492Z,96.81
2022-12-10T21:17:20.050Z,94.66
2022-12-10T21:36:18.269Z,95.69
2022-12-10T21:38:45.251Z,95.47
2022-12-10T21:41:43.137Z,95.67
2022-12-10T21:44:10.299Z,93.93
2022-12-10T21:46:37.094Z,94.37
2022-12-10T21:49:10.784Z,95.36
2022-12-10T21:51:42.904Z,95.46
2022-12-10T21:54:09.663Z,94.81
2022-12-10T21:56:36.970Z,94.11
2022-12-10T22:12:23.201Z,95.03
2022-12-10T22:15:09.471Z,95.80
2022-12-10T22:17:36.936Z,94.31
2022-12-10T22:20:04.611Z,94.17
2022-12-10T22:22:32.026Z,94.67
2022-12-10T22:24:58.564Z,94.90
2022-12-10T22:27:25.020Z,93.88
2022-12-10T22:29:51.750Z,94.10
2022-12-10T22:32:18.272Z,94.23
2022-12-10T22:34:45.716Z,92.87
2022-12-10T22:37:12.384Z,93.59
2022-12-10T22:39:38.799Z,92.45
2022-12-10T22:42:05.245Z,90.88
2022-12-10T22:44:31.681Z,92.79
2022-12-10T22:46:58.155Z,92.73
2022-12-10T22:49:24.639Z,93.00
2022-12-10T22:51:50.980Z,92.58
2022-12-10T22:54:17.538Z,92.17
2022-12-10T22:56:44.078Z,93.01
2022-12-10T22:59:13.450Z,93.82
2022-12-10T23:01:43.105Z,93.97
2022-12-10T23:04:09.973Z,93.11
2022-12-10T23:06:36.624Z,93.87
2022-12-10T23:09:03.082Z,93.74
2022-12-10T23:11:29.526Z,93.43
2022-12-10T23:13:57.224Z,93.73
2022-12-10T23:16:44.451Z,93.00
2022-12-10T23:19:11.237Z,93.44
2022-12-10T23:21:37.685Z,93.28
2022-12-10T23:24:06.689Z,94.51
2022-12-10T23:26:34.348Z,93.11
2022-12-10T23:29:01.992Z,92.79
2022-12-10T23:31:28.561Z,93.22
2022-12-10T23:33:54.983Z,91.55
2022-12-10T23:36:21.326Z,91.35
2022-12-10T23:38:47.831Z,92.50
2022-12-10T23:41:14.654Z,92.73
2022-12-10T23:43:41.087Z,93.54
2022-12-10T23:46:09.772Z,92.57
2022-12-10T23:48:36.567Z,93.61
2022-12-10T23:51:02.994Z,94.30
2022-12-10T23:53:29.731Z,92.80
2022-12-10T23:55:56.662Z,93.74
2022-12-10T23:58:23.605Z,94.12
